Time;durP1;ratioP1;P1;durP2;ratioP2;P2;SDS_P1;SDS_P2;PMS_P1;PMS_P2;Temp;Humidity;BMP_temperature;BMP_pressure;BME280_temperature;BME280_humidity;BME280_pressure;Samples;Min_cycle;Max_cycle;Signal;HPM_P1;HPM_P2
2023/08/04 00:00:23;;;;;;;13.95;9.00;;;;;;;23.45;78.35;98806.13;5075493;28;20102;-76
2023/08/04 00:03:08;;;;;;;12.90;8.88;;;;;;;23.36;78.69;98810.50;5083899;28;20110;-77
2023/08/04 00:05:52;;;;;;;15.82;9.45;;;;;;;23.22;79.06;98813.84;5073082;28;20530;-76
2023/08/04 00:08:36;;;;;;;17.98;9.32;;;;;;;23.28;79.07;98795.84;5080376;28;20069;-77
2023/08/04 00:11:20;;;;;;;16.15;9.82;;;;;;;22.96;79.96;98815.97;5076620;28;20059;-77
2023/08/04 00:14:04;;;;;;;15.35;8.60;;;;;;;23.10;79.22;98805.38;5080146;28;20051;-76
2023/08/04 00:16:48;;;;;;;13.30;8.98;;;;;;;22.76;80.52;98822.28;5080447;28;20452;-76
2023/08/04 00:19:32;;;;;;;17.63;9.00;;;;;;;23.14;79.34;98817.13;5076890;28;20047;-75
2023/08/04 00:22:16;;;;;;;14.77;9.20;;;;;;;22.94;80.27;98812.78;5082129;28;20097;-76
2023/08/04 00:25:00;;;;;;;16.48;9.18;;;;;;;22.81;80.60;98825.72;5077833;28;20047;-76
2023/08/04 00:27:44;;;;;;;14.65;9.27;;;;;;;23.17;79.81;98810.41;5075873;28;20052;-78
2023/08/04 00:30:27;;;;;;;10.85;8.10;;;;;;;22.99;80.34;98825.28;5076250;28;20032;-75
2023/08/04 00:33:11;;;;;;;13.32;9.45;;;;;;;22.89;80.68;98816.28;5075062;28;20101;-78
2023/08/04 00:35:55;;;;;;;15.70;8.25;;;;;;;23.06;80.19;98820.44;5080256;28;20055;-76
2023/08/04 00:38:39;;;;;;;19.23;9.45;;;;;;;22.65;81.03;98821.56;5081003;28;20469;-76
2023/08/04 00:41:23;;;;;;;17.88;9.85;;;;;;;22.80;80.89;98824.13;5075793;28;20058;-76
2023/08/04 00:44:08;;;;;;;15.52;8.07;;;;;;;22.98;79.98;98821.84;5073571;28;20040;-77
2023/08/04 00:46:52;;;;;;;18.35;9.27;;;;;;;23.15;79.79;98840.13;5073074;28;20156;-76
2023/08/04 00:49:36;;;;;;;12.35;8.57;;;;;;;23.03;80.04;98826.34;5080545;28;20043;-77
2023/08/04 00:52:20;;;;;;;13.48;8.77;;;;;;;23.24;79.28;98835.78;5082287;28;20563;-77
2023/08/04 00:55:07;;;;;;;15.07;9.13;;;;;;;23.11;79.09;98829.22;5078894;28;20059;-77
2023/08/04 00:57:54;;;;;;;16.95;9.60;;;;;;;22.68;80.82;98853.94;5073142;28;20064;-77
2023/08/04 01:00:39;;;;;;;13.95;9.77;;;;;;;22.32;81.86;98851.47;5080323;28;20043;-76
2023/08/04 01:03:24;;;;;;;13.45;9.77;;;;;;;22.55;81.75;98841.19;5081258;28;20073;-76
2023/08/04 01:06:08;;;;;;;17.90;9.65;;;;;;;22.58;81.68;98848.63;5075893;28;20451;-76
2023/08/04 01:09:02;;;;;;;13.68;9.38;;;;;;;22.45;82.02;98854.59;5079088;28;20050;-76
2023/08/04 01:11:55;;;;;;;;;;;;;;;22.52;82.96;98855.13;5074478;28;20043;-76
2023/08/04 01:14:44;;;;;;;17.30;9.95;;;;;;;22.68;82.51;98869.16;5077821;28;20376;-76
2023/08/04 01:17:29;;;;;;;14.98;9.35;;;;;;;22.66;82.37;98863.28;5071788;28;20043;-76
2023/08/04 01:20:14;;;;;;;17.02;9.38;;;;;;;22.88;82.20;98875.44;5073044;28;20043;-76
2023/08/04 01:22:58;;;;;;;15.80;10.13;;;;;;;22.93;81.83;98878.09;5081063;28;20058;-76
2023/08/04 01:25:42;;;;;;;18.83;9.27;;;;;;;23.24;81.57;98875.13;5070339;28;20509;-77
2023/08/04 01:28:28;;;;;;;20.60;10.52;;;;;;;22.74;82.61;98877.97;5069375;28;20101;-76
2023/08/04 01:31:13;;;;;;;19.52;8.75;;;;;;;22.81;82.86;98870.44;5075235;28;20090;-76
2023/08/04 01:33:57;;;;;;;22.58;8.63;;;;;;;22.91;82.00;98881.03;5081779;28;20044;-76
2023/08/04 01:36:42;;;;;;;18.50;8.55;;;;;;;22.94;82.23;98877.78;5082217;28;20048;-76
2023/08/04 01:39:26;;;;;;;17.85;8.88;;;;;;;22.64;83.00;98876.16;5084292;28;20064;-77
2023/08/04 01:42:10;;;;;;;15.90;9.00;;;;;;;23.15;81.83;98876.81;5080618;28;20476;-76
2023/08/04 01:44:54;;;;;;;14.85;8.05;;;;;;;23.03;81.99;98885.25;5075645;28;20101;-76
2023/08/04 01:47:39;;;;;;;19.33;9.00;;;;;;;23.33;81.41;98878.81;5076593;28;20044;-77
2023/08/04 01:50:22;;;;;;;14.35;8.30;;;;;;;23.10;81.89;98885.69;5082825;28;20052;-77
2023/08/04 01:53:07;;;;;;;18.02;8.93;;;;;;;23.34;81.23;98890.31;5080250;28;20085;-77
2023/08/04 01:55:50;;;;;;;16.80;8.35;;;;;;;23.63;80.33;98892.19;5078990;28;20066;-77
2023/08/04 01:58:34;;;;;;;15.52;9.48;;;;;;;23.27;81.48;98889.88;5075507;28;20048;-77
2023/08/04 02:01:20;;;;;;;22.92;8.90;;;;;;;23.01;81.84;98903.47;5077046;28;20106;-77
2023/08/04 02:04:04;;;;;;;15.65;8.68;;;;;;;23.13;81.56;98898.50;5071907;28;20497;-77
2023/08/04 02:06:48;;;;;;;15.05;7.63;;;;;;;23.50;80.93;98899.03;5080414;28;20039;-75
2023/08/04 02:09:33;;;;;;;13.00;7.70;;;;;;;23.20;81.52;98906.22;5079048;28;20497;-76
2023/08/04 02:12:17;;;;;;;17.05;6.78;;;;;;;23.32;81.53;98903.19;5075017;28;20119;-79
2023/08/04 02:15:01;;;;;;;14.57;7.43;;;;;;;23.30;81.35;98908.03;5077748;28;20101;-76
2023/08/04 02:17:45;;;;;;;14.57;7.20;;;;;;;22.90;82.36;98906.19;5082682;28;20070;-78
2023/08/04 02:20:29;;;;;;;13.30;7.85;;;;;;;23.27;81.34;98911.28;5078740;28;20163;-76
2023/08/04 02:23:13;;;;;;;14.98;7.05;;;;;;;23.07;81.78;98899.66;5081375;28;20178;-79
2023/08/04 02:25:57;;;;;;;11.27;6.93;;;;;;;23.31;80.98;98906.97;5075974;28;20047;-76
2023/08/04 02:28:41;;;;;;;13.63;7.53;;;;;;;23.24;81.07;98904.56;5078635;28;20042;-76
2023/08/04 02:31:28;;;;;;;16.88;7.50;;;;;;;22.74;82.86;98907.38;5081006;28;20083;-76
2023/08/04 02:34:12;;;;;;;15.88;7.82;;;;;;;22.96;82.13;98912.31;5084099;28;20567;-77
2023/08/04 02:36:56;;;;;;;16.38;7.82;;;;;;;22.49;83.24;98907.28;5078025;28;20039;-77
2023/08/04 02:39:40;;;;;;;15.65;8.13;;;;;;;22.66;83.34;98909.59;5084972;28;20110;-76
2023/08/04 02:42:24;;;;;;;21.50;8.20;;;;;;;22.63;83.39;98920.03;5077414;28;20090;-79
2023/08/04 02:45:09;;;;;;;17.02;8.85;;;;;;;22.22;84.54;98911.13;5077105;28;20040;-78
2023/08/04 02:47:53;;;;;;;14.05;7.53;;;;;;;22.39;84.35;98912.66;5085445;28;20039;-76
2023/08/04 02:50:37;;;;;;;20.90;8.27;;;;;;;22.17;84.77;98913.03;5078031;28;20126;-76
2023/08/04 02:53:21;;;;;;;23.77;8.73;;;;;;;22.26;83.98;98920.19;5079661;28;20051;-76
2023/08/04 02:56:23;;;;;;;15.20;7.93;;;;;;;22.21;85.17;98911.44;5083725;28;20085;-76
2023/08/04 02:59:07;;;;;;;15.75;8.02;;;;;;;22.56;84.10;98916.88;5077493;28;20050;-76
2023/08/04 03:01:51;;;;;;;13.27;7.60;;;;;;;22.59;84.35;98914.44;5082959;28;20059;-76
2023/08/04 03:04:35;;;;;;;15.52;8.48;;;;;;;22.50;84.28;98916.09;5080514;28;20042;-76
2023/08/04 03:07:19;;;;;;;15.52;7.35;;;;;;;22.88;83.06;98913.72;5085720;28;20047;-77
2023/08/04 03:10:04;;;;;;;15.00;7.95;;;;;;;22.80;82.98;98911.66;5075506;28;20187;-79
2023/08/04 03:12:48;;;;;;;18.98;8.90;;;;;;;22.73;83.18;98903.13;5078013;28;20090;-76
2023/08/04 03:15:31;;;;;;;20.17;9.05;;;;;;;22.92;82.93;98912.06;5080828;28;20048;-79
2023/08/04 03:18:16;;;;;;;18.60;8.18;;;;;;;22.97;82.80;98914.69;5075074;28;20456;-76
2023/08/04 03:21:04;;;;;;;13.32;7.82;;;;;;;22.90;82.62;98913.44;5080736;28;20508;-76
2023/08/04 03:23:48;;;;;;;14.65;8.07;;;;;;;22.48;83.97;98907.56;5075699;28;20112;-76
2023/08/04 03:26:32;;;;;;;15.60;7.82;;;;;;;22.76;83.16;98907.91;5080805;28;20124;-76
2023/08/04 03:29:16;;;;;;;17.60;7.72;;;;;;;22.21;84.73;98914.88;5080129;28;20035;-79
2023/08/04 03:32:00;;;;;;;16.40;7.72;;;;;;;22.53;84.04;98926.25;5080842;28;20444;-76
2023/08/04 03:34:44;;;;;;;13.13;7.78;;;;;;;22.18;85.28;98936.00;5080182;28;20406;-76
2023/08/04 03:37:28;;;;;;;20.85;8.00;;;;;;;22.17;85.38;98923.72;5076510;28;20092;-76
2023/08/04 03:40:13;;;;;;;16.25;7.53;;;;;;;22.40;84.56;98933.78;5076242;28;20074;-76
2023/08/04 03:42:58;;;;;;;17.58;7.88;;;;;;;22.46;84.13;98936.44;5077877;28;20071;-76
2023/08/04 03:45:42;;;;;;;19.20;7.65;;;;;;;22.42;84.55;98925.47;5076103;28;20090;-76
2023/08/04 03:48:25;;;;;;;15.90;7.80;;;;;;;22.22;85.12;98929.84;5079855;28;20097;-76
2023/08/04 03:51:09;;;;;;;14.18;7.65;;;;;;;22.35;84.90;98925.78;5078878;28;20038;-77
2023/08/04 03:53:54;;;;;;;20.65;7.80;;;;;;;22.45;84.64;98937.50;5078534;28;20046;-77
2023/08/04 03:56:38;;;;;;;16.17;8.68;;;;;;;22.30;84.99;98949.88;5076161;28;20040;-76
2023/08/04 03:59:22;;;;;;;14.73;8.48;;;;;;;22.37;85.01;98939.66;5077110;28;20094;-76
2023/08/04 04:02:06;;;;;;;13.85;7.60;;;;;;;22.42;84.98;98948.75;5077364;28;20047;-77
2023/08/04 04:04:50;;;;;;;13.07;7.47;;;;;;;22.33;84.27;98948.53;5079220;28;20079;-78
2023/08/04 04:07:34;;;;;;;12.27;7.82;;;;;;;22.54;84.25;98954.59;5073647;28;20074;-79
2023/08/04 04:10:18;;;;;;;15.80;7.57;;;;;;;22.32;84.27;98960.31;5078266;28;20063;-77
2023/08/04 04:13:02;;;;;;;14.35;7.30;;;;;;;22.59;84.07;98961.78;5085140;28;20043;-77
2023/08/04 04:15:47;;;;;;;18.20;7.88;;;;;;;22.50;84.52;98961.56;5082970;28;20456;-76
2023/08/04 04:18:31;;;;;;;18.27;7.57;;;;;;;22.94;83.20;98952.72;5078988;28;20098;-76
2023/08/04 04:21:14;;;;;;;14.02;7.75;;;;;;;22.82;83.18;98952.31;5081887;28;20660;-76
2023/08/04 04:23:58;;;;;;;13.75;6.93;;;;;;;22.53;83.89;98958.34;5077743;28;20410;-75
2023/08/04 04:26:42;;;;;;;17.42;7.47;;;;;;;22.38;83.98;98957.31;5077534;28;20113;-76
2023/08/04 04:29:26;;;;;;;13.00;6.25;;;;;;;22.62;83.80;98962.06;5080443;28;20071;-76
2023/08/04 04:32:10;;;;;;;15.80;6.95;;;;;;;22.57;84.07;98958.59;5081341;28;20101;-80
2023/08/04 04:34:54;;;;;;;17.90;5.95;;;;;;;22.94;82.58;98952.72;5081591;28;20047;-76
2023/08/04 04:37:38;;;;;;;19.60;5.80;;;;;;;22.67;83.20;98958.53;5077823;28;20421;-75
2023/08/04 04:40:22;;;;;;;9.95;6.05;;;;;;;22.71;83.50;98958.78;5081568;28;20039;-76
2023/08/04 04:43:06;;;;;;;10.93;5.63;;;;;;;22.63;83.16;98969.00;5082599;28;20051;-76
2023/08/04 04:45:51;;;;;;;11.60;5.35;;;;;;;22.48;84.33;98974.44;5078336;28;20115;-79
2023/08/04 04:48:35;;;;;;;10.75;5.78;;;;;;;22.70;83.55;98982.06;5079061;28;20039;-78
2023/08/04 04:51:19;;;;;;;14.10;5.43;;;;;;;22.28;84.13;98984.09;5074866;28;20050;-76
2023/08/04 04:54:03;;;;;;;14.70;5.68;;;;;;;22.58;83.67;98993.09;5077009;28;20051;-78
2023/08/04 04:56:48;;;;;;;12.65;6.53;;;;;;;22.18;83.55;98986.81;5076512;28;20093;-78
2023/08/04 04:59:32;;;;;;;19.45;6.97;;;;;;;22.45;83.75;98988.31;5079003;28;20035;-78
2023/08/04 05:02:16;;;;;;;10.48;6.45;;;;;;;22.22;84.13;98985.22;5084072;28;20042;-78
2023/08/04 05:05:00;;;;;;;12.15;5.32;;;;;;;22.59;83.55;98993.91;5077664;28;20531;-78
2023/08/04 05:07:44;;;;;;;13.23;6.32;;;;;;;22.35;83.58;98989.94;5078846;28;20055;-78
2023/08/04 05:10:28;;;;;;;20.17;7.10;;;;;;;22.37;82.93;99001.16;5075006;28;20058;-77
2023/08/04 05:13:12;;;;;;;14.32;5.95;;;;;;;22.42;83.05;99000.34;5073944;28;20059;-77
2023/08/04 05:15:56;;;;;;;17.88;5.60;;;;;;;22.54;82.92;99000.06;5075772;28;20043;-78
2023/08/04 05:18:39;;;;;;;13.55;5.53;;;;;;;22.86;81.35;99004.19;5077180;28;20081;-79
2023/08/04 05:21:23;;;;;;;14.57;6.20;;;;;;;23.01;80.85;99005.97;5075428;28;20101;-77
2023/08/04 05:24:08;;;;;;;13.38;5.80;;;;;;;22.46;82.16;99004.06;5078051;28;20115;-78
2023/08/04 05:26:51;;;;;;;14.90;5.82;;;;;;;22.73;81.18;99015.50;5076767;28;20102;-79
2023/08/04 05:29:35;;;;;;;9.70;5.57;;;;;;;22.43;82.05;99009.19;5079223;28;20048;-78
2023/08/04 05:32:19;;;;;;;10.88;6.25;;;;;;;22.46;81.51;99008.63;5075159;28;20070;-79
2023/08/04 05:35:03;;;;;;;10.15;5.85;;;;;;;22.60;81.48;99017.72;5076118;28;20071;-79
2023/08/04 05:37:48;;;;;;;12.20;5.25;;;;;;;22.87;80.92;99019.16;5080132;28;20054;-79
2023/08/04 05:40:35;;;;;;;10.82;4.80;;;;;;;23.04;80.20;99016.09;5073261;28;20039;-76
2023/08/04 05:43:19;;;;;;;10.10;5.50;;;;;;;22.63;80.49;99025.19;5074102;28;20047;-79
2023/08/04 05:46:03;;;;;;;11.30;5.28;;;;;;;23.01;79.69;99021.22;5076415;28;20047;-77
2023/08/04 05:48:47;;;;;;;8.73;5.43;;;;;;;22.98;79.49;99022.56;5076766;28;20107;-77
2023/08/04 05:51:31;;;;;;;11.32;4.95;;;;;;;23.02;79.05;99026.28;5080642;28;20497;-79
2023/08/04 05:54:15;;;;;;;7.97;5.15;;;;;;;23.25;78.41;99032.88;5080363;28;20083;-79
2023/08/04 05:56:59;;;;;;;12.25;5.95;;;;;;;23.45;78.30;99030.28;5081229;28;20089;-76
2023/08/04 05:59:43;;;;;;;9.48;4.88;;;;;;;22.81;79.67;99041.69;5077048;28;20107;-76
2023/08/04 06:02:27;;;;;;;12.77;5.47;;;;;;;23.00;79.52;99043.72;5079384;28;20051;-79
2023/08/04 06:05:12;;;;;;;13.48;5.25;;;;;;;22.65;79.74;99049.78;5074069;28;20517;-79
2023/08/04 06:07:56;;;;;;;15.43;5.65;;;;;;;23.03;79.27;99051.19;5073237;28;20066;-76
2023/08/04 06:10:40;;;;;;;9.90;4.68;;;;;;;22.54;79.77;99056.22;5075168;28;20035;-75
2023/08/04 06:13:24;;;;;;;14.27;5.03;;;;;;;23.46;78.90;99054.13;5072640;28;20077;-75
2023/08/04 06:16:08;;;;;;;10.38;4.15;;;;;;;23.80;77.07;99050.66;5076725;28;20051;-76
2023/08/04 06:18:52;;;;;;;11.68;4.68;;;;;;;23.78;77.00;99054.69;5074582;28;20120;-76
2023/08/04 06:21:36;;;;;;;6.63;4.40;;;;;;;23.78;76.36;99071.56;5078853;28;20116;-76
2023/08/04 06:24:27;;;;;;;8.30;4.35;;;;;;;24.37;75.04;99076.91;5083085;28;20504;-77
2023/08/04 06:27:11;;;;;;;5.32;4.13;;;;;;;24.64;74.23;99070.16;5075780;28;20128;-76
2023/08/04 06:29:55;;;;;;;11.98;4.65;;;;;;;23.51;75.33;99070.16;5080194;28;20075;-78
2023/08/04 06:32:39;;;;;;;7.25;3.78;;;;;;;24.18;74.26;99068.00;5074689;28;20052;-77
2023/08/04 06:35:23;;;;;;;8.55;4.38;;;;;;;23.79;74.48;99075.84;5073339;28;20576;-76
2023/08/04 06:38:09;;;;;;;5.88;4.05;;;;;;;24.59;73.32;99077.47;5074613;28;20086;-77
2023/08/04 06:40:53;;;;;;;7.30;4.40;;;;;;;24.47;73.27;99080.56;5074254;28;20038;-77
2023/08/04 06:43:37;;;;;;;9.80;4.13;;;;;;;24.72;72.38;99075.97;5077439;28;20051;-76
2023/08/04 06:46:21;;;;;;;11.65;3.95;;;;;;;24.59;72.94;99094.38;5081018;28;20051;-77
2023/08/04 06:49:05;;;;;;;8.73;4.07;;;;;;;24.60;72.29;99087.91;5072572;28;20520;-76
2023/08/04 06:51:49;;;;;;;8.00;4.55;;;;;;;24.61;72.37;99091.38;5076056;28;20093;-76
2023/08/04 06:54:34;;;;;;;7.20;3.80;;;;;;;24.90;71.46;99091.31;5077894;28;20078;-76
2023/08/04 06:57:18;;;;;;;6.82;4.07;;;;;;;23.86;73.42;99090.78;5077268;28;20119;-76
2023/08/04 07:00:04;;;;;;;6.75;4.45;;;;;;;24.03;73.20;99096.56;5074509;28;20039;-76
2023/08/04 07:02:48;;;;;;;12.02;4.22;;;;;;;24.25;73.07;99098.75;5070904;28;20130;-77
2023/08/04 07:05:33;;;;;;;8.32;4.13;;;;;;;24.17;73.12;99099.38;5069924;28;20120;-75
2023/08/04 07:08:17;;;;;;;6.50;3.97;;;;;;;24.20;73.02;99103.38;5071773;28;20134;-76
2023/08/04 07:11:01;;;;;;;12.45;4.82;;;;;;;23.68;73.21;99103.78;5072873;28;20513;-76
2023/08/04 07:13:45;;;;;;;6.43;3.97;;;;;;;24.51;72.66;99109.22;5081137;28;20101;-77
2023/08/04 07:16:29;;;;;;;7.35;4.00;;;;;;;24.30;72.48;99103.25;5083846;28;20047;-77
2023/08/04 07:19:14;;;;;;;7.18;4.07;;;;;;;24.33;72.20;99105.38;5080793;28;20048;-77
2023/08/04 07:21:58;;;;;;;4.35;3.15;;;;;;;24.32;72.05;99111.03;5079511;28;20488;-76
2023/08/04 07:24:43;;;;;;;11.43;4.47;;;;;;;23.74;72.77;99116.06;5076421;28;20083;-77
2023/08/04 07:27:27;;;;;;;6.78;3.63;;;;;;;24.64;71.48;99118.47;5077551;28;20134;-78
2023/08/04 07:30:13;;;;;;;10.68;3.80;;;;;;;24.05;72.46;99123.06;5076892;28;20039;-77
2023/08/04 07:32:57;;;;;;;7.35;3.33;;;;;;;24.78;71.00;99115.13;5081161;28;20035;-78
2023/08/04 07:35:41;;;;;;;8.82;3.63;;;;;;;24.23;71.67;99118.91;5071497;28;20051;-77
2023/08/04 07:38:27;;;;;;;8.15;3.58;;;;;;;25.02;69.82;99114.28;5073569;28;20501;-76
2023/08/04 07:41:18;;;;;;;7.63;3.28;;;;;;;25.08;70.24;99110.41;5068736;28;20089;-82
2023/08/04 07:44:02;;;;;;;5.93;3.00;;;;;;;24.67;69.40;99117.09;5082945;28;20043;-82
2023/08/04 07:46:46;;;;;;;8.65;3.25;;;;;;;25.13;69.38;99120.31;5086142;28;20039;-84
2023/08/04 07:49:30;;;;;;;6.10;3.17;;;;;;;25.51;68.20;99118.41;5083419;28;20093;-83
2023/08/04 07:52:14;;;;;;;6.70;3.20;;;;;;;25.08;68.41;99121.16;5084728;28;20476;-85
2023/08/04 07:54:58;;;;;;;9.25;3.10;;;;;;;25.19;67.50;99136.06;5079014;28;20048;-83
2023/08/04 07:57:42;;;;;;;3.45;2.70;;;;;;;25.22;68.02;99130.09;5084554;28;20115;-82
2023/08/04 08:00:26;;;;;;;4.35;2.65;;;;;;;25.02;68.06;99130.38;5076767;28;20519;-80
2023/08/04 08:03:10;;;;;;;6.82;3.13;;;;;;;25.00;68.09;99137.94;5081233;28;20043;-80
2023/08/04 08:05:54;;;;;;;5.40;2.72;;;;;;;25.29;67.55;99145.06;5077699;28;20043;-80
2023/08/04 08:08:38;;;;;;;4.72;2.65;;;;;;;24.74;68.38;99143.56;5078422;28;20487;-80
2023/08/04 08:11:22;;;;;;;8.95;2.90;;;;;;;24.05;69.27;99145.34;5076932;28;20043;-79
2023/08/04 08:14:06;;;;;;;2.53;2.25;;;;;;;25.10;67.92;99145.84;5083115;28;20042;-79
2023/08/04 08:16:50;;;;;;;6.25;2.83;;;;;;;24.97;67.95;99152.72;5076827;28;20406;-80
2023/08/04 08:19:34;;;;;;;5.10;2.75;;;;;;;24.65;68.40;99152.25;5072596;28;20035;-79
2023/08/04 08:22:18;;;;;;;4.88;2.47;;;;;;;24.47;68.36;99153.81;5075424;28;20101;-79
2023/08/04 08:25:02;;;;;;;4.20;2.53;;;;;;;24.20;69.19;99157.03;5086619;28;20089;-78
2023/08/04 08:27:46;;;;;;;4.40;2.70;;;;;;;24.16;69.49;99156.78;5079311;28;20047;-78
2023/08/04 08:30:30;;;;;;;7.53;2.30;;;;;;;24.56;68.95;99164.69;5083304;28;20048;-79
2023/08/04 08:33:14;;;;;;;3.55;2.70;;;;;;;24.04;69.16;99164.38;5083870;28;20048;-78
2023/08/04 08:35:59;;;;;;;4.63;2.50;;;;;;;24.87;67.88;99172.44;5085165;28;20100;-80
2023/08/04 08:38:43;;;;;;;5.53;2.70;;;;;;;24.55;68.19;99173.81;5084390;28;20043;-81
2023/08/04 08:41:27;;;;;;;7.97;2.45;;;;;;;24.25;69.11;99178.41;5082432;28;20036;-80
2023/08/04 08:44:11;;;;;;;6.38;3.13;;;;;;;24.75;69.07;99177.38;5081254;28;20051;-82
2023/08/04 08:46:55;;;;;;;4.22;2.90;;;;;;;24.37;69.17;99176.16;5081308;28;20089;-76
2023/08/04 08:49:50;;;;;;;4.60;2.60;;;;;;;24.98;68.43;99186.53;5077405;28;20097;-76
2023/08/04 08:52:39;;;;;;;2.80;2.47;;;;;;;25.20;67.44;99188.69;5076481;28;20166;-76
2023/08/04 08:55:25;;;;;;;4.45;3.08;;;;;;;24.59;68.52;99199.03;5074429;28;20492;-75
2023/08/04 08:58:11;;;;;;;6.97;3.05;;;;;;;24.75;68.28;99198.84;5068449;28;20044;-76
2023/08/04 09:00:56;;;;;;;5.40;3.30;;;;;;;23.98;70.07;99209.19;5074338;28;20079;-75
2023/08/04 09:03:40;;;;;;;4.07;2.03;;;;;;;23.67;72.51;99209.38;5076956;28;20102;-74
2023/08/04 09:06:24;;;;;;;2.58;2.38;;;;;;;24.02;73.20;99218.28;5070834;28;20047;-75
2023/08/04 09:09:08;;;;;;;3.22;2.00;;;;;;;23.91;73.52;99219.41;5069873;28;20044;-78
2023/08/04 09:11:55;;;;;;;2.65;2.45;;;;;;;23.26;75.99;99231.81;5071788;28;20378;-78
2023/08/04 09:14:58;;;;;;;4.80;2.78;;;;;;;22.27;82.12;99233.84;5073013;28;20046;-77
2023/08/04 09:17:42;;;;;;;4.25;3.17;;;;;;;22.52;82.73;99235.72;5075343;28;20043;-77
2023/08/04 09:20:28;;;;;;;3.20;2.78;;;;;;;21.67;85.21;99243.09;5072976;28;20482;-77
2023/08/04 09:23:12;;;;;;;3.45;3.10;;;;;;;22.54;85.46;99243.47;5071727;28;20075;-77
2023/08/04 09:25:57;;;;;;;3.63;3.15;;;;;;;23.24;84.77;99237.44;5070771;28;20568;-75
2023/08/04 09:28:40;;;;;;;4.68;3.58;;;;;;;23.55;83.58;99244.56;5074280;28;20036;-78
2023/08/04 09:31:24;;;;;;;3.60;3.30;;;;;;;23.20;82.85;99246.28;5074973;28;20177;-76
2023/08/04 09:34:10;;;;;;;4.05;3.65;;;;;;;23.71;83.55;99237.22;5079709;28;20101;-78
2023/08/04 09:36:56;;;;;;;3.72;2.95;;;;;;;23.69;83.25;99244.75;5075582;28;20086;-76
2023/08/04 09:39:45;;;;;;;4.00;3.55;;;;;;;23.71;83.15;99242.59;5077012;28;20047;-77
2023/08/04 09:42:30;;;;;;;3.63;3.30;;;;;;;23.58;83.10;99248.53;5077058;28;20134;-76
2023/08/04 09:45:15;;;;;;;4.35;3.30;;;;;;;23.56;83.62;99248.00;5076029;28;20149;-76
2023/08/04 09:47:59;;;;;;;4.07;3.38;;;;;;;23.71;84.10;99245.25;5074546;28;20084;-78
2023/08/04 09:50:43;;;;;;;2.90;2.60;;;;;;;23.19;84.18;99256.19;5077509;28;20046;-75
2023/08/04 09:53:27;;;;;;;3.08;2.80;;;;;;;23.42;83.45;99250.50;5071535;28;20043;-78
2023/08/04 09:56:13;;;;;;;3.45;2.28;;;;;;;23.33;82.93;99253.75;5081059;28;20039;-76
2023/08/04 09:58:58;;;;;;;3.35;2.50;;;;;;;23.30;82.56;99254.31;5082472;28;20039;-76
2023/08/04 10:01:43;;;;;;;3.00;2.40;;;;;;;23.72;82.69;99246.84;5085369;28;20465;-75
2023/08/04 10:04:27;;;;;;;2.83;2.50;;;;;;;24.11;82.23;99248.00;5081538;28;20063;-75
2023/08/04 10:07:12;;;;;;;2.50;2.30;;;;;;;24.31;80.17;99249.69;5081320;28;20122;-76
2023/08/04 10:09:56;;;;;;;3.97;2.40;;;;;;;24.43;79.60;99249.34;5082528;28;20091;-76
2023/08/04 10:12:40;;;;;;;2.78;2.58;;;;;;;24.39;79.10;99253.66;5079599;28;20051;-78
2023/08/04 10:15:25;;;;;;;5.00;3.28;;;;;;;25.02;78.10;99257.38;5079272;28;20055;-75
2023/08/04 10:18:09;;;;;;;3.58;2.67;;;;;;;24.55;78.23;99251.63;5077473;28;20108;-76
2023/08/04 10:20:53;;;;;;;5.32;2.65;;;;;;;25.18;76.93;99255.34;5076382;28;20075;-75
2023/08/04 10:23:37;;;;;;;3.72;2.67;;;;;;;25.38;75.15;99253.50;5076187;28;20054;-78
2023/08/04 10:26:21;;;;;;;3.28;2.83;;;;;;;25.69;74.68;99258.47;5081125;28;20050;-75
2023/08/04 10:29:05;;;;;;;3.08;2.78;;;;;;;25.84;75.37;99257.44;5082554;28;20079;-78
2023/08/04 10:31:52;;;;;;;3.88;2.70;;;;;;;26.06;74.20;99256.06;5081998;28;20055;-75
2023/08/04 10:34:41;;;;;;;3.00;2.70;;;;;;;26.10;73.97;99255.19;5080254;28;20055;-74
2023/08/04 10:37:25;;;;;;;3.08;2.33;;;;;;;25.36;73.15;99244.91;5084524;28;20115;-76
2023/08/04 10:40:10;;;;;;;2.22;2.00;;;;;;;26.03;73.46;99257.44;5081117;28;20170;-75
2023/08/04 10:43:04;;;;;;;3.03;2.38;;;;;;;26.61;74.54;99260.84;5075028;28;20097;-75
2023/08/04 10:45:54;;;;;;;2.50;2.30;;;;;;;26.70;72.40;99257.47;5074848;28;20108;-75
2023/08/04 10:48:40;;;;;;;1.83;1.73;;;;;;;26.46;71.48;99258.41;5078806;28;20045;-76
2023/08/04 10:51:25;;;;;;;2.50;1.80;;;;;;;26.52;70.97;99259.91;5082432;28;20094;-76
2023/08/04 10:54:09;;;;;;;2.58;2.03;;;;;;;26.02;70.87;99261.22;5074235;28;20396;-76
2023/08/04 10:56:53;;;;;;;1.83;1.73;;;;;;;26.08;70.25;99254.69;5070277;28;20155;-77
2023/08/04 10:59:37;;;;;;;1.80;1.70;;;;;;;25.83;72.01;99255.06;5073272;28;20043;-76
2023/08/04 11:02:23;;;;;;;2.30;1.90;;;;;;;26.80;69.90;99254.59;5072819;28;20098;-76
2023/08/04 11:05:11;;;;;;;2.85;1.80;;;;;;;27.05;69.34;99255.22;5072277;28;20042;-76
2023/08/04 11:07:55;;;;;;;2.08;1.85;;;;;;;26.98;69.28;99257.53;5077115;28;20054;-77
2023/08/04 11:10:49;;;;;;;3.00;1.90;;;;;;;26.40;69.44;99267.69;5079083;28;20047;-76
2023/08/04 11:13:33;;;;;;;;;;;;;;;25.85;69.67;99266.31;5110354;27;20047;-76
2023/08/04 11:16:17;;;;;;;3.05;1.70;;;;;;;26.92;69.81;99254.13;5074409;28;19918;-76
2023/08/04 11:19:07;;;;;;;1.83;1.58;;;;;;;26.30;68.22;99260.56;5076998;28;20517;-76
2023/08/04 11:21:51;;;;;;;3.38;1.85;;;;;;;26.23;69.35;99256.34;5078385;28;20436;-76
2023/08/04 11:24:35;;;;;;;3.88;1.90;;;;;;;27.34;68.53;99260.28;5077708;28;20058;-76
2023/08/04 11:27:20;;;;;;;2.38;1.80;;;;;;;27.61;68.54;99257.88;5080068;28;20047;-76
2023/08/04 11:30:05;;;;;;;2.22;1.80;;;;;;;28.21;66.44;99264.09;5076609;28;20090;-77
2023/08/04 11:32:50;;;;;;;1.70;1.60;;;;;;;27.53;66.40;99262.09;5072057;28;20051;-76
2023/08/04 11:35:34;;;;;;;2.20;1.67;;;;;;;27.52;66.47;99271.28;5076855;28;20070;-76
2023/08/04 11:38:18;;;;;;;2.78;2.03;;;;;;;27.75;66.36;99264.06;5080792;28;20039;-77
2023/08/04 11:41:03;;;;;;;3.97;2.10;;;;;;;27.55;66.76;99265.28;5071456;28;20089;-79
2023/08/04 11:43:47;;;;;;;2.75;2.22;;;;;;;26.65;65.91;99269.13;5075158;28;20089;-76
2023/08/04 11:46:31;;;;;;;6.72;2.22;;;;;;;26.46;64.57;99269.19;5075765;28;20093;-78
2023/08/04 11:49:15;;;;;;;6.18;2.58;;;;;;;26.80;65.06;99276.13;5081757;28;20043;-79
2023/08/04 11:51:59;;;;;;;3.30;2.40;;;;;;;27.17;64.80;99277.09;5074580;28;20168;-77
2023/08/04 11:54:57;;;;;;;6.20;2.20;;;;;;;27.89;63.48;99274.78;5073401;28;20547;-77
2023/08/04 11:57:52;;;;;;;6.15;2.60;;;;;;;27.73;63.41;99279.75;5074874;28;20100;-78
2023/08/04 12:00:37;;;;;;;5.95;2.83;;;;;;;27.29;63.24;99278.47;5078813;28;20081;-77
2023/08/04 12:03:21;;;;;;;5.22;2.83;;;;;;;27.76;62.18;99268.34;5071897;28;20101;-77
2023/08/04 12:06:13;;;;;;;5.43;2.38;;;;;;;28.63;61.01;99274.69;5069691;28;20085;-76
2023/08/04 12:09:00;;;;;;;3.97;2.70;;;;;;;28.51;60.15;99265.22;5074137;28;20055;-78
2023/08/04 12:11:48;;;;;;;3.40;2.50;;;;;;;27.73;61.04;99268.13;5075153;28;20093;-77
2023/08/04 12:14:32;;;;;;;3.22;2.45;;;;;;;28.12;60.68;99257.81;5075169;28;20136;-77
2023/08/04 12:17:16;;;;;;;5.45;2.58;;;;;;;29.30;60.01;99266.69;5082695;28;20111;-77
2023/08/04 12:20:00;;;;;;;4.50;2.85;;;;;;;29.70;57.95;99277.44;5076728;28;20502;-78
2023/08/04 12:22:44;;;;;;;4.53;2.35;;;;;;;30.13;58.44;99275.06;5074770;28;20090;-77
2023/08/04 12:25:28;;;;;;;4.15;2.47;;;;;;;29.58;59.11;99278.06;5078409;28;20131;-78
2023/08/04 12:28:13;;;;;;;5.43;2.83;;;;;;;30.38;57.00;99273.44;5076620;28;20070;-77
2023/08/04 12:30:57;;;;;;;3.38;2.38;;;;;;;30.22;55.31;99275.84;5075095;28;20039;-77
2023/08/04 12:33:41;;;;;;;4.18;2.58;;;;;;;30.13;57.13;99266.94;5072787;28;20118;-78
2023/08/04 12:36:25;;;;;;;3.70;2.70;;;;;;;30.06;55.44;99265.50;5075112;28;20047;-77
2023/08/04 12:39:09;;;;;;;5.35;2.60;;;;;;;29.19;57.40;99268.88;5075273;28;20046;-76
2023/08/04 12:41:53;;;;;;;3.88;3.00;;;;;;;29.93;55.41;99274.56;5076901;28;20063;-77
2023/08/04 12:44:37;;;;;;;4.40;3.00;;;;;;;30.10;55.38;99267.59;5075783;28;20052;-77
2023/08/04 12:47:21;;;;;;;5.15;2.83;;;;;;;30.57;54.02;99273.06;5070724;28;20153;-77
2023/08/04 12:50:06;;;;;;;5.45;3.28;;;;;;;29.25;55.43;99274.94;5080894;28;20175;-77